sensor_id;sensor_type;location;lat;lon;timestamp;temperature;humidity
13742;DHT22;8461;52.356;10.704;2022-11-25T00:01:27;2.70;99.90
13742;DHT22;8461;52.356;10.704;2022-11-25T00:03:54;2.60;99.90
13742;DHT22;8461;52.356;10.704;2022-11-25T00:08:58;2.60;99.90
13742;DHT22;8461;52.356;10.704;2022-11-25T00:11:24;2.50;99.90
13742;DHT22;8461;52.356;10.704;2022-11-25T00:13:50;2.50;99.90
13742;DHT22;8461;52.356;10.704;2022-11-25T00:16:17;2.50;99.90
13742;DHT22;8461;52.356;10.704;2022-11-25T00:18:48;2.50;99.90
13742;DHT22;8461;52.356;10.704;2022-11-25T00:21:19;2.50;99.90
13742;DHT22;8461;52.356;10.704;2022-11-25T00:23:50;2.50;99.90
13742;DHT22;8461;52.356;10.704;2022-11-25T00:26:16;2.50;99.90
13742;DHT22;8461;52.356;10.704;2022-11-25T00:28:44;2.50;99.90
13742;DHT22;8461;52.356;10.704;2022-11-25T00:31:34;2.50;99.90
13742;DHT22;8461;52.356;10.704;2022-11-25T00:34:00;2.40;99.90
13742;DHT22;8461;52.356;10.704;2022-11-25T00:36:36;2.50;99.90
13742;DHT22;8461;52.356;10.704;2022-11-25T00:39:16;2.50;99.90
13742;DHT22;8461;52.356;10.704;2022-11-25T00:41:42;2.50;99.90
13742;DHT22;8461;52.356;10.704;2022-11-25T00:44:27;2.50;99.90
13742;DHT22;8461;52.356;10.704;2022-11-25T00:47:09;2.50;99.90
13742;DHT22;8461;52.356;10.704;2022-11-25T00:49:36;2.40;99.90
13742;DHT22;8461;52.356;10.704;2022-11-25T00:52:03;2.40;99.90
13742;DHT22;8461;52.356;10.704;2022-11-25T00:54:29;2.40;99.90
13742;DHT22;8461;52.356;10.704;2022-11-25T00:56:55;2.40;99.90
13742;DHT22;8461;52.356;10.704;2022-11-25T00:59:21;2.40;99.90
13742;DHT22;8461;52.356;10.704;2022-11-25T01:01:47;2.30;99.90
13742;DHT22;8461;52.356;10.704;2022-11-25T01:04:12;2.20;99.90
13742;DHT22;8461;52.356;10.704;2022-11-25T01:06:38;2.00;99.90
13742;DHT22;8461;52.356;10.704;2022-11-25T01:09:05;1.80;99.90
13742;DHT22;8461;52.356;10.704;2022-11-25T01:11:31;1.60;99.90
13742;DHT22;8461;52.356;10.704;2022-11-25T01:13:56;1.60;99.90
13742;DHT22;8461;52.356;10.704;2022-11-25T01:16:23;1.50;99.90
13742;DHT22;8461;52.356;10.704;2022-11-25T01:18:50;1.50;99.90
13742;DHT22;8461;52.356;10.704;2022-11-25T01:21:30;1.50;99.90
13742;DHT22;8461;52.356;10.704;2022-11-25T01:23:58;1.60;99.90
13742;DHT22;8461;52.356;10.704;2022-11-25T01:26:24;1.60;99.90
13742;DHT22;8461;52.356;10.704;2022-11-25T01:28:55;1.60;99.90
13742;DHT22;8461;52.356;10.704;2022-11-25T01:31:23;1.60;99.90
13742;DHT22;8461;52.356;10.704;2022-11-25T01:33:55;1.80;99.90
13742;DHT22;8461;52.356;10.704;2022-11-25T01:36:21;1.80;99.90
13742;DHT22;8461;52.356;10.704;2022-11-25T01:38:52;1.80;99.90
13742;DHT22;8461;52.356;10.704;2022-11-25T01:41:18;1.60;99.90
13742;DHT22;8461;52.356;10.704;2022-11-25T01:47:19;1.50;99.90
13742;DHT22;8461;52.356;10.704;2022-11-25T01:50:04;1.50;99.90
13742;DHT22;8461;52.356;10.704;2022-11-25T01:52:33;1.50;99.90
13742;DHT22;8461;52.356;10.704;2022-11-25T01:55:25;1.60;99.90
13742;DHT22;8461;52.356;10.704;2022-11-25T01:58:00;1.80;99.90
13742;DHT22;8461;52.356;10.704;2022-11-25T02:00:27;1.90;99.90
13742;DHT22;8461;52.356;10.704;2022-11-25T02:02:54;1.90;99.90
13742;DHT22;8461;52.356;10.704;2022-11-25T02:05:25;2.00;99.90
13742;DHT22;8461;52.356;10.704;2022-11-25T02:07:54;1.90;99.90
13742;DHT22;8461;52.356;10.704;2022-11-25T02:10:28;2.00;99.90
13742;DHT22;8461;52.356;10.704;2022-11-25T02:12:55;2.00;99.90
13742;DHT22;8461;52.356;10.704;2022-11-25T02:15:21;2.00;99.90
13742;DHT22;8461;52.356;10.704;2022-11-25T02:17:48;1.90;99.90
13742;DHT22;8461;52.356;10.704;2022-11-25T02:20:18;2.00;99.90
13742;DHT22;8461;52.356;10.704;2022-11-25T02:23:00;2.00;99.90
13742;DHT22;8461;52.356;10.704;2022-11-25T02:25:31;2.00;99.90
13742;DHT22;8461;52.356;10.704;2022-11-25T02:28:15;2.00;99.90
13742;DHT22;8461;52.356;10.704;2022-11-25T02:30:42;2.00;99.90
13742;DHT22;8461;52.356;10.704;2022-11-25T02:33:07;2.00;99.90
13742;DHT22;8461;52.356;10.704;2022-11-25T02:35:36;2.00;99.90
13742;DHT22;8461;52.356;10.704;2022-11-25T02:38:11;1.80;99.90
13742;DHT22;8461;52.356;10.704;2022-11-25T02:43:18;1.50;99.90
13742;DHT22;8461;52.356;10.704;2022-11-25T02:45:48;1.40;99.90
13742;DHT22;8461;52.356;10.704;2022-11-25T02:48:15;1.30;99.90
13742;DHT22;8461;52.356;10.704;2022-11-25T02:50:42;1.30;99.90
13742;DHT22;8461;52.356;10.704;2022-11-25T02:53:07;1.30;99.90
13742;DHT22;8461;52.356;10.704;2022-11-25T02:55:33;1.20;99.90
13742;DHT22;8461;52.356;10.704;2022-11-25T02:57:59;1.20;99.90
13742;DHT22;8461;52.356;10.704;2022-11-25T03:00:25;1.10;99.90
13742;DHT22;8461;52.356;10.704;2022-11-25T03:02:52;0.90;99.90
13742;DHT22;8461;52.356;10.704;2022-11-25T03:05:17;0.80;99.90
13742;DHT22;8461;52.356;10.704;2022-11-25T03:07:43;0.80;99.90
13742;DHT22;8461;52.356;10.704;2022-11-25T03:10:09;0.70;99.90
13742;DHT22;8461;52.356;10.704;2022-11-25T03:12:34;0.70;99.90
13742;DHT22;8461;52.356;10.704;2022-11-25T03:15:00;0.60;99.90
13742;DHT22;8461;52.356;10.704;2022-11-25T03:17:25;0.50;99.90
13742;DHT22;8461;52.356;10.704;2022-11-25T03:19:51;0.50;99.90
13742;DHT22;8461;52.356;10.704;2022-11-25T03:22:16;0.40;99.90
13742;DHT22;8461;52.356;10.704;2022-11-25T03:24:42;0.40;99.90
13742;DHT22;8461;52.356;10.704;2022-11-25T03:27:07;0.30;99.90
13742;DHT22;8461;52.356;10.704;2022-11-25T03:29:33;0.40;99.90
13742;DHT22;8461;52.356;10.704;2022-11-25T03:31:58;0.30;99.90
13742;DHT22;8461;52.356;10.704;2022-11-25T03:34:24;0.30;99.90
13742;DHT22;8461;52.356;10.704;2022-11-25T03:36:49;0.30;99.90
13742;DHT22;8461;52.356;10.704;2022-11-25T03:39:15;0.40;99.90
13742;DHT22;8461;52.356;10.704;2022-11-25T03:41:41;0.60;99.90
13742;DHT22;8461;52.356;10.704;2022-11-25T03:44:06;0.70;99.90
13742;DHT22;8461;52.356;10.704;2022-11-25T03:46:32;0.90;99.90
13742;DHT22;8461;52.356;10.704;2022-11-25T03:48:57;1.10;99.90
13742;DHT22;8461;52.356;10.704;2022-11-25T03:51:23;1.30;99.90
13742;DHT22;8461;52.356;10.704;2022-11-25T03:53:49;1.40;99.90
13742;DHT22;8461;52.356;10.704;2022-11-25T03:56:14;1.50;99.90
13742;DHT22;8461;52.356;10.704;2022-11-25T03:58:40;1.50;99.90
13742;DHT22;8461;52.356;10.704;2022-11-25T04:01:05;1.60;99.90
13742;DHT22;8461;52.356;10.704;2022-11-25T04:03:31;1.70;99.90
13742;DHT22;8461;52.356;10.704;2022-11-25T04:05:56;1.70;99.90
13742;DHT22;8461;52.356;10.704;2022-11-25T04:08:22;1.80;99.90
13742;DHT22;8461;52.356;10.704;2022-11-25T04:10:48;1.70;99.90
13742;DHT22;8461;52.356;10.704;2022-11-25T04:13:14;1.50;99.90
13742;DHT22;8461;52.356;10.704;2022-11-25T04:15:45;1.40;99.90
13742;DHT22;8461;52.356;10.704;2022-11-25T04:18:12;1.30;99.90
13742;DHT22;8461;52.356;10.704;2022-11-25T04:20:38;1.20;99.90
13742;DHT22;8461;52.356;10.704;2022-11-25T04:23:03;1.30;99.90
13742;DHT22;8461;52.356;10.704;2022-11-25T04:25:30;1.00;99.90
13742;DHT22;8461;52.356;10.704;2022-11-25T04:27:56;0.80;99.90
13742;DHT22;8461;52.356;10.704;2022-11-25T04:30:22;0.60;99.90
13742;DHT22;8461;52.356;10.704;2022-11-25T04:32:47;0.70;99.90
13742;DHT22;8461;52.356;10.704;2022-11-25T04:35:13;0.70;99.90
13742;DHT22;8461;52.356;10.704;2022-11-25T04:37:38;0.70;99.90
13742;DHT22;8461;52.356;10.704;2022-11-25T04:40:04;0.60;99.90
13742;DHT22;8461;52.356;10.704;2022-11-25T04:42:30;0.60;99.90
13742;DHT22;8461;52.356;10.704;2022-11-25T04:44:56;0.60;99.90
13742;DHT22;8461;52.356;10.704;2022-11-25T04:47:22;0.50;99.90
13742;DHT22;8461;52.356;10.704;2022-11-25T04:49:47;0.50;99.90
13742;DHT22;8461;52.356;10.704;2022-11-25T04:52:13;0.50;99.90
13742;DHT22;8461;52.356;10.704;2022-11-25T04:54:38;0.50;99.90
13742;DHT22;8461;52.356;10.704;2022-11-25T04:57:04;0.50;99.90
13742;DHT22;8461;52.356;10.704;2022-11-25T04:59:29;0.70;99.90
13742;DHT22;8461;52.356;10.704;2022-11-25T05:02:25;0.60;99.90
13742;DHT22;8461;52.356;10.704;2022-11-25T05:04:53;0.60;99.90
13742;DHT22;8461;52.356;10.704;2022-11-25T05:07:20;0.50;99.90
13742;DHT22;8461;52.356;10.704;2022-11-25T05:09:47;0.50;99.90
13742;DHT22;8461;52.356;10.704;2022-11-25T05:12:15;0.40;99.90
13742;DHT22;8461;52.356;10.704;2022-11-25T05:14:41;0.30;99.90
13742;DHT22;8461;52.356;10.704;2022-11-25T05:17:09;0.40;99.90
13742;DHT22;8461;52.356;10.704;2022-11-25T05:19:36;0.50;99.90
13742;DHT22;8461;52.356;10.704;2022-11-25T05:22:02;0.60;99.90
13742;DHT22;8461;52.356;10.704;2022-11-25T05:24:28;0.80;99.90
13742;DHT22;8461;52.356;10.704;2022-11-25T05:26:53;0.90;99.90
13742;DHT22;8461;52.356;10.704;2022-11-25T05:29:19;1.10;99.90
13742;DHT22;8461;52.356;10.704;2022-11-25T05:31:44;1.20;99.90
13742;DHT22;8461;52.356;10.704;2022-11-25T05:34:10;1.30;99.90
13742;DHT22;8461;52.356;10.704;2022-11-25T05:36:35;1.40;99.90
13742;DHT22;8461;52.356;10.704;2022-11-25T05:39:02;1.50;99.90
13742;DHT22;8461;52.356;10.704;2022-11-25T05:41:27;1.50;99.90
13742;DHT22;8461;52.356;10.704;2022-11-25T05:43:53;1.60;99.90
13742;DHT22;8461;52.356;10.704;2022-11-25T05:46:18;1.60;99.90
13742;DHT22;8461;52.356;10.704;2022-11-25T05:48:44;1.60;99.90
13742;DHT22;8461;52.356;10.704;2022-11-25T05:51:09;1.60;99.90
13742;DHT22;8461;52.356;10.704;2022-11-25T05:53:35;1.70;99.90
13742;DHT22;8461;52.356;10.704;2022-11-25T05:56:03;1.70;99.90
13742;DHT22;8461;52.356;10.704;2022-11-25T05:58:30;1.70;99.90
13742;DHT22;8461;52.356;10.704;2022-11-25T06:00:57;1.70;99.90
13742;DHT22;8461;52.356;10.704;2022-11-25T06:03:23;1.80;99.90
13742;DHT22;8461;52.356;10.704;2022-11-25T06:05:49;1.80;99.90
13742;DHT22;8461;52.356;10.704;2022-11-25T06:08:15;1.80;99.90
13742;DHT22;8461;52.356;10.704;2022-11-25T06:10:41;1.80;99.90
13742;DHT22;8461;52.356;10.704;2022-11-25T06:13:07;1.80;99.90
13742;DHT22;8461;52.356;10.704;2022-11-25T06:15:39;1.80;99.90
13742;DHT22;8461;52.356;10.704;2022-11-25T06:18:05;1.80;99.90
13742;DHT22;8461;52.356;10.704;2022-11-25T06:20:31;1.80;99.90
13742;DHT22;8461;52.356;10.704;2022-11-25T06:22:57;1.90;99.90
13742;DHT22;8461;52.356;10.704;2022-11-25T06:25:23;1.90;99.90
13742;DHT22;8461;52.356;10.704;2022-11-25T06:27:49;1.80;99.90
13742;DHT22;8461;52.356;10.704;2022-11-25T06:30:14;1.90;99.90
13742;DHT22;8461;52.356;10.704;2022-11-25T06:32:40;1.90;99.90
13742;DHT22;8461;52.356;10.704;2022-11-25T06:35:06;1.90;99.90
13742;DHT22;8461;52.356;10.704;2022-11-25T06:37:32;1.90;99.90
13742;DHT22;8461;52.356;10.704;2022-11-25T06:39:57;1.90;99.90
13742;DHT22;8461;52.356;10.704;2022-11-25T06:42:23;1.90;99.90
13742;DHT22;8461;52.356;10.704;2022-11-25T06:44:49;1.90;99.90
13742;DHT22;8461;52.356;10.704;2022-11-25T06:47:14;1.90;99.90
13742;DHT22;8461;52.356;10.704;2022-11-25T06:49:40;1.90;99.90
13742;DHT22;8461;52.356;10.704;2022-11-25T06:52:06;1.90;99.90
13742;DHT22;8461;52.356;10.704;2022-11-25T06:54:32;1.90;99.90
13742;DHT22;8461;52.356;10.704;2022-11-25T06:56:57;1.80;99.90
13742;DHT22;8461;52.356;10.704;2022-11-25T06:59:23;1.80;99.90
13742;DHT22;8461;52.356;10.704;2022-11-25T07:01:49;1.90;99.90
13742;DHT22;8461;52.356;10.704;2022-11-25T07:04:14;1.90;99.90
13742;DHT22;8461;52.356;10.704;2022-11-25T07:06:40;1.90;99.90
13742;DHT22;8461;52.356;10.704;2022-11-25T07:09:05;1.90;99.90
13742;DHT22;8461;52.356;10.704;2022-11-25T07:11:34;1.90;99.90
13742;DHT22;8461;52.356;10.704;2022-11-25T07:14:02;1.90;99.90
13742;DHT22;8461;52.356;10.704;2022-11-25T07:16:29;1.90;99.90
13742;DHT22;8461;52.356;10.704;2022-11-25T07:18:55;1.90;99.90
13742;DHT22;8461;52.356;10.704;2022-11-25T07:21:22;2.00;99.90
13742;DHT22;8461;52.356;10.704;2022-11-25T07:23:49;2.00;99.90
13742;DHT22;8461;52.356;10.704;2022-11-25T07:26:18;2.00;99.90
13742;DHT22;8461;52.356;10.704;2022-11-25T07:28:44;2.00;99.90
13742;DHT22;8461;52.356;10.704;2022-11-25T07:33:38;2.00;99.90
13742;DHT22;8461;52.356;10.704;2022-11-25T07:36:05;2.00;99.90
13742;DHT22;8461;52.356;10.704;2022-11-25T07:38:32;2.10;99.90
13742;DHT22;8461;52.356;10.704;2022-11-25T07:41:16;2.10;99.90
13742;DHT22;8461;52.356;10.704;2022-11-25T07:43:46;2.10;99.90
13742;DHT22;8461;52.356;10.704;2022-11-25T07:46:13;2.20;99.90
13742;DHT22;8461;52.356;10.704;2022-11-25T07:48:40;2.20;99.90
13742;DHT22;8461;52.356;10.704;2022-11-25T07:53:44;2.40;99.90
13742;DHT22;8461;52.356;10.704;2022-11-25T07:56:10;2.50;99.90
13742;DHT22;8461;52.356;10.704;2022-11-25T07:58:36;2.50;99.90
13742;DHT22;8461;52.356;10.704;2022-11-25T08:01:04;2.60;99.90
13742;DHT22;8461;52.356;10.704;2022-11-25T08:03:32;2.70;99.90
13742;DHT22;8461;52.356;10.704;2022-11-25T08:06:02;2.70;99.90
13742;DHT22;8461;52.356;10.704;2022-11-25T08:08:27;2.80;99.90
13742;DHT22;8461;52.356;10.704;2022-11-25T08:10:53;2.90;99.90
13742;DHT22;8461;52.356;10.704;2022-11-25T08:13:18;3.00;99.90
13742;DHT22;8461;52.356;10.704;2022-11-25T08:15:44;3.10;99.90
13742;DHT22;8461;52.356;10.704;2022-11-25T08:18:10;3.20;99.90
13742;DHT22;8461;52.356;10.704;2022-11-25T08:20:35;3.30;99.90
13742;DHT22;8461;52.356;10.704;2022-11-25T08:23:01;3.40;99.90
13742;DHT22;8461;52.356;10.704;2022-11-25T08:25:27;3.40;99.90
13742;DHT22;8461;52.356;10.704;2022-11-25T08:27:54;3.40;99.90
13742;DHT22;8461;52.356;10.704;2022-11-25T08:30:19;3.40;99.90
13742;DHT22;8461;52.356;10.704;2022-11-25T08:32:48;3.50;99.90
13742;DHT22;8461;52.356;10.704;2022-11-25T08:35:14;3.40;99.90
13742;DHT22;8461;52.356;10.704;2022-11-25T08:37:40;3.40;99.90
13742;DHT22;8461;52.356;10.704;2022-11-25T08:40:06;3.30;99.90
13742;DHT22;8461;52.356;10.704;2022-11-25T08:42:31;3.40;99.90
13742;DHT22;8461;52.356;10.704;2022-11-25T08:44:58;3.40;99.90
13742;DHT22;8461;52.356;10.704;2022-11-25T08:47:25;3.40;99.90
13742;DHT22;8461;52.356;10.704;2022-11-25T08:49:52;3.40;99.90
13742;DHT22;8461;52.356;10.704;2022-11-25T08:52:18;3.40;99.90
13742;DHT22;8461;52.356;10.704;2022-11-25T08:54:44;3.50;99.90
13742;DHT22;8461;52.356;10.704;2022-11-25T08:57:09;3.50;99.90
13742;DHT22;8461;52.356;10.704;2022-11-25T08:59:35;3.50;99.90
13742;DHT22;8461;52.356;10.704;2022-11-25T09:02:00;3.60;99.90
13742;DHT22;8461;52.356;10.704;2022-11-25T09:04:26;3.70;99.90
13742;DHT22;8461;52.356;10.704;2022-11-25T09:06:52;3.70;99.90
13742;DHT22;8461;52.356;10.704;2022-11-25T09:09:17;3.80;99.90
13742;DHT22;8461;52.356;10.704;2022-11-25T09:11:43;3.80;99.90
13742;DHT22;8461;52.356;10.704;2022-11-25T09:14:09;4.00;99.90
13742;DHT22;8461;52.356;10.704;2022-11-25T09:16:34;4.10;99.90
13742;DHT22;8461;52.356;10.704;2022-11-25T09:19:00;4.30;99.90
13742;DHT22;8461;52.356;10.704;2022-11-25T09:21:25;4.50;99.90
13742;DHT22;8461;52.356;10.704;2022-11-25T09:23:52;4.70;99.90
13742;DHT22;8461;52.356;10.704;2022-11-25T09:26:24;4.90;99.90
13742;DHT22;8461;52.356;10.704;2022-11-25T09:28:50;5.10;99.90
13742;DHT22;8461;52.356;10.704;2022-11-25T09:31:16;5.20;99.90
13742;DHT22;8461;52.356;10.704;2022-11-25T09:33:42;5.30;99.90
13742;DHT22;8461;52.356;10.704;2022-11-25T09:36:09;5.30;99.90
13742;DHT22;8461;52.356;10.704;2022-11-25T09:38:35;5.50;99.90
13742;DHT22;8461;52.356;10.704;2022-11-25T09:41:09;5.60;99.90
13742;DHT22;8461;52.356;10.704;2022-11-25T09:44:06;5.60;99.90
13742;DHT22;8461;52.356;10.704;2022-11-25T09:47:08;5.60;99.90
13742;DHT22;8461;52.356;10.704;2022-11-25T09:49:59;5.50;99.90
13742;DHT22;8461;52.356;10.704;2022-11-25T09:52:36;5.30;99.90
13742;DHT22;8461;52.356;10.704;2022-11-25T09:55:10;5.10;99.90
13742;DHT22;8461;52.356;10.704;2022-11-25T09:58:05;5.10;99.90
13742;DHT22;8461;52.356;10.704;2022-11-25T10:00:39;5.20;99.90
13742;DHT22;8461;52.356;10.704;2022-11-25T10:06:02;5.20;99.90
13742;DHT22;8461;52.356;10.704;2022-11-25T10:08:38;5.30;99.90
13742;DHT22;8461;52.356;10.704;2022-11-25T10:16:28;5.60;99.90
13742;DHT22;8461;52.356;10.704;2022-11-25T10:19:35;5.60;99.90
13742;DHT22;8461;52.356;10.704;2022-11-25T10:22:15;5.80;99.90
13742;DHT22;8461;52.356;10.704;2022-11-25T10:24:41;6.00;99.90
13742;DHT22;8461;52.356;10.704;2022-11-25T10:27:14;6.10;99.90
13742;DHT22;8461;52.356;10.704;2022-11-25T10:29:42;6.20;99.90
13742;DHT22;8461;52.356;10.704;2022-11-25T10:32:25;6.40;99.90
13742;DHT22;8461;52.356;10.704;2022-11-25T10:34:57;6.50;99.90
13742;DHT22;8461;52.356;10.704;2022-11-25T10:37:34;6.60;99.90
13742;DHT22;8461;52.356;10.704;2022-11-25T10:40:00;6.70;99.90
13742;DHT22;8461;52.356;10.704;2022-11-25T10:42:27;6.70;99.90
13742;DHT22;8461;52.356;10.704;2022-11-25T10:44:53;6.80;99.90
13742;DHT22;8461;52.356;10.704;2022-11-25T10:47:51;6.80;99.90
13742;DHT22;8461;52.356;10.704;2022-11-25T10:53:13;7.00;99.90
13742;DHT22;8461;52.356;10.704;2022-11-25T10:56:02;7.10;99.90
13742;DHT22;8461;52.356;10.704;2022-11-25T10:58:34;7.30;99.90
13742;DHT22;8461;52.356;10.704;2022-11-25T11:01:04;7.50;99.90
13742;DHT22;8461;52.356;10.704;2022-11-25T11:03:30;7.50;99.90
13742;DHT22;8461;52.356;10.704;2022-11-25T11:05:56;7.60;99.90
13742;DHT22;8461;52.356;10.704;2022-11-25T11:11:15;7.60;99.90
13742;DHT22;8461;52.356;10.704;2022-11-25T11:13:40;7.60;99.90
13742;DHT22;8461;52.356;10.704;2022-11-25T11:16:29;7.50;99.90
13742;DHT22;8461;52.356;10.704;2022-11-25T11:18:56;7.50;99.90
13742;DHT22;8461;52.356;10.704;2022-11-25T11:21:36;7.50;99.90
13742;DHT22;8461;52.356;10.704;2022-11-25T11:27:04;7.40;99.90
13742;DHT22;8461;52.356;10.704;2022-11-25T11:29:30;7.40;99.90
13742;DHT22;8461;52.356;10.704;2022-11-25T11:32:01;7.40;99.90
13742;DHT22;8461;52.356;10.704;2022-11-25T11:34:49;7.40;99.90
13742;DHT22;8461;52.356;10.704;2022-11-25T11:37:42;7.40;99.90
13742;DHT22;8461;52.356;10.704;2022-11-25T11:40:20;7.30;99.90
13742;DHT22;8461;52.356;10.704;2022-11-25T11:46:21;7.30;99.90
13742;DHT22;8461;52.356;10.704;2022-11-25T11:49:02;7.30;99.90
13742;DHT22;8461;52.356;10.704;2022-11-25T11:57:20;7.50;99.90
13742;DHT22;8461;52.356;10.704;2022-11-25T11:59:53;7.50;99.90
13742;DHT22;8461;52.356;10.704;2022-11-25T12:07:49;7.60;99.90
13742;DHT22;8461;52.356;10.704;2022-11-25T12:20:54;7.50;99.90
13742;DHT22;8461;52.356;10.704;2022-11-25T12:23:45;7.40;99.90
13742;DHT22;8461;52.356;10.704;2022-11-25T12:26:59;7.40;99.90
13742;DHT22;8461;52.356;10.704;2022-11-25T12:29:34;7.40;99.90
13742;DHT22;8461;52.356;10.704;2022-11-25T12:35:04;7.40;99.90
13742;DHT22;8461;52.356;10.704;2022-11-25T12:40:45;7.40;99.90
13742;DHT22;8461;52.356;10.704;2022-11-25T12:46:45;7.40;99.90
13742;DHT22;8461;52.356;10.704;2022-11-25T12:48:45;7.40;99.90
13742;DHT22;8461;52.356;10.704;2022-11-25T12:51:30;7.40;99.90
13742;DHT22;8461;52.356;10.704;2022-11-25T12:59:50;7.40;99.90
13742;DHT22;8461;52.356;10.704;2022-11-25T13:02:29;7.30;99.90
13742;DHT22;8461;52.356;10.704;2022-11-25T13:13:26;7.30;99.90
13742;DHT22;8461;52.356;10.704;2022-11-25T13:15:57;7.30;99.90
13742;DHT22;8461;52.356;10.704;2022-11-25T13:18:26;7.30;99.90
13742;DHT22;8461;52.356;10.704;2022-11-25T13:20:54;7.30;99.90
13742;DHT22;8461;52.356;10.704;2022-11-25T13:23:25;7.30;99.90
13742;DHT22;8461;52.356;10.704;2022-11-25T13:25:53;7.30;99.90
13742;DHT22;8461;52.356;10.704;2022-11-25T13:28:37;7.20;99.90
13742;DHT22;8461;52.356;10.704;2022-11-25T13:36:20;7.10;99.90
13742;DHT22;8461;52.356;10.704;2022-11-25T13:46:38;7.10;99.90
13742;DHT22;8461;52.356;10.704;2022-11-25T13:49:18;7.10;99.90
13742;DHT22;8461;52.356;10.704;2022-11-25T13:51:52;7.10;99.90
13742;DHT22;8461;52.356;10.704;2022-11-25T13:54:22;7.10;99.90
13742;DHT22;8461;52.356;10.704;2022-11-25T13:57:14;7.10;99.90
13742;DHT22;8461;52.356;10.704;2022-11-25T14:10:43;7.40;99.90
13742;DHT22;8461;52.356;10.704;2022-11-25T14:25:21;7.50;99.90
13742;DHT22;8461;52.356;10.704;2022-11-25T14:27:50;7.50;99.90
13742;DHT22;8461;52.356;10.704;2022-11-25T14:30:17;7.40;99.90
13742;DHT22;8461;52.356;10.704;2022-11-25T14:32:57;7.40;99.90
13742;DHT22;8461;52.356;10.704;2022-11-25T14:35:39;7.30;99.90
13742;DHT22;8461;52.356;10.704;2022-11-25T14:38:14;7.30;99.90
13742;DHT22;8461;52.356;10.704;2022-11-25T14:40:49;7.30;99.90
13742;DHT22;8461;52.356;10.704;2022-11-25T14:43:20;7.20;99.90
13742;DHT22;8461;52.356;10.704;2022-11-25T14:45:46;7.20;99.90
13742;DHT22;8461;52.356;10.704;2022-11-25T14:48:16;7.20;99.90
13742;DHT22;8461;52.356;10.704;2022-11-25T14:50:59;7.20;99.90
13742;DHT22;8461;52.356;10.704;2022-11-25T14:53:26;7.20;99.90
13742;DHT22;8461;52.356;10.704;2022-11-25T14:55:52;7.20;99.90
13742;DHT22;8461;52.356;10.704;2022-11-25T14:58:19;7.20;99.90
13742;DHT22;8461;52.356;10.704;2022-11-25T15:03:23;7.20;99.90
13742;DHT22;8461;52.356;10.704;2022-11-25T15:05:59;7.20;99.90
13742;DHT22;8461;52.356;10.704;2022-11-25T15:08:25;7.20;99.90
13742;DHT22;8461;52.356;10.704;2022-11-25T15:10:54;7.10;99.90
13742;DHT22;8461;52.356;10.704;2022-11-25T15:15:52;7.10;99.90
13742;DHT22;8461;52.356;10.704;2022-11-25T15:18:21;7.10;99.90
13742;DHT22;8461;52.356;10.704;2022-11-25T15:20:50;7.10;99.90
13742;DHT22;8461;52.356;10.704;2022-11-25T15:23:22;7.10;99.90
13742;DHT22;8461;52.356;10.704;2022-11-25T15:25:50;7.10;99.90
13742;DHT22;8461;52.356;10.704;2022-11-25T15:28:16;7.10;99.90
13742;DHT22;8461;52.356;10.704;2022-11-25T15:30:41;7.00;99.90
13742;DHT22;8461;52.356;10.704;2022-11-25T15:33:09;7.00;99.90
13742;DHT22;8461;52.356;10.704;2022-11-25T15:35:35;7.00;99.90
13742;DHT22;8461;52.356;10.704;2022-11-25T15:38:19;7.00;99.90
13742;DHT22;8461;52.356;10.704;2022-11-25T15:40:59;7.00;99.90
13742;DHT22;8461;52.356;10.704;2022-11-25T15:43:27;7.00;99.90
13742;DHT22;8461;52.356;10.704;2022-11-25T15:46:00;7.00;99.90
13742;DHT22;8461;52.356;10.704;2022-11-25T15:48:35;6.90;99.90
13742;DHT22;8461;52.356;10.704;2022-11-25T15:51:06;6.90;99.90
13742;DHT22;8461;52.356;10.704;2022-11-25T15:53:41;6.90;99.90
13742;DHT22;8461;52.356;10.704;2022-11-25T15:56:10;6.90;99.90
13742;DHT22;8461;52.356;10.704;2022-11-25T15:58:41;6.90;99.90
13742;DHT22;8461;52.356;10.704;2022-11-25T16:01:22;6.90;99.90
13742;DHT22;8461;52.356;10.704;2022-11-25T16:03:49;6.90;99.90
13742;DHT22;8461;52.356;10.704;2022-11-25T16:06:26;6.80;99.90
13742;DHT22;8461;52.356;10.704;2022-11-25T16:08:52;6.80;99.90
13742;DHT22;8461;52.356;10.704;2022-11-25T16:11:19;6.70;99.90
13742;DHT22;8461;52.356;10.704;2022-11-25T16:13:46;6.80;99.90
13742;DHT22;8461;52.356;10.704;2022-11-25T16:27:00;6.80;99.90
13742;DHT22;8461;52.356;10.704;2022-11-25T16:29:33;6.80;99.90
13742;DHT22;8461;52.356;10.704;2022-11-25T16:32:13;6.80;99.90
13742;DHT22;8461;52.356;10.704;2022-11-25T16:34:39;6.80;99.90
13742;DHT22;8461;52.356;10.704;2022-11-25T16:37:04;6.70;99.90
13742;DHT22;8461;52.356;10.704;2022-11-25T16:39:30;6.80;99.90
13742;DHT22;8461;52.356;10.704;2022-11-25T16:41:57;6.80;99.90
13742;DHT22;8461;52.356;10.704;2022-11-25T16:44:26;6.80;99.90
13742;DHT22;8461;52.356;10.704;2022-11-25T16:46:52;6.80;99.90
13742;DHT22;8461;52.356;10.704;2022-11-25T16:49:19;6.80;99.90
13742;DHT22;8461;52.356;10.704;2022-11-25T16:51:45;6.80;99.90
13742;DHT22;8461;52.356;10.704;2022-11-25T16:54:10;6.80;99.90
13742;DHT22;8461;52.356;10.704;2022-11-25T16:56:40;6.90;99.90
13742;DHT22;8461;52.356;10.704;2022-11-25T16:59:17;6.90;99.90
13742;DHT22;8461;52.356;10.704;2022-11-25T17:01:43;6.90;99.90
13742;DHT22;8461;52.356;10.704;2022-11-25T17:04:13;6.90;99.90
13742;DHT22;8461;52.356;10.704;2022-11-25T17:06:39;6.90;99.90
13742;DHT22;8461;52.356;10.704;2022-11-25T17:09:06;7.00;99.90
13742;DHT22;8461;52.356;10.704;2022-11-25T17:11:58;7.00;99.90
13742;DHT22;8461;52.356;10.704;2022-11-25T17:14:28;7.00;99.90
13742;DHT22;8461;52.356;10.704;2022-11-25T17:16:54;7.00;99.90
13742;DHT22;8461;52.356;10.704;2022-11-25T17:19:20;7.00;99.90
13742;DHT22;8461;52.356;10.704;2022-11-25T17:21:45;7.00;99.90
13742;DHT22;8461;52.356;10.704;2022-11-25T17:24:17;7.00;99.90
13742;DHT22;8461;52.356;10.704;2022-11-25T17:29:21;7.00;99.90
13742;DHT22;8461;52.356;10.704;2022-11-25T17:31:50;7.00;99.90
13742;DHT22;8461;52.356;10.704;2022-11-25T17:34:16;7.00;99.90
13742;DHT22;8461;52.356;10.704;2022-11-25T17:36:43;7.00;99.90
13742;DHT22;8461;52.356;10.704;2022-11-25T17:39:13;7.00;99.90
13742;DHT22;8461;52.356;10.704;2022-11-25T17:41:47;7.00;99.90
13742;DHT22;8461;52.356;10.704;2022-11-25T17:44:27;7.00;99.90
13742;DHT22;8461;52.356;10.704;2022-11-25T17:46:54;7.00;99.90
13742;DHT22;8461;52.356;10.704;2022-11-25T17:49:20;7.00;99.90
13742;DHT22;8461;52.356;10.704;2022-11-25T17:51:46;7.00;99.90
13742;DHT22;8461;52.356;10.704;2022-11-25T17:54:11;7.00;99.90
13742;DHT22;8461;52.356;10.704;2022-11-25T17:56:39;7.00;99.90
13742;DHT22;8461;52.356;10.704;2022-11-25T17:59:10;7.00;99.90
13742;DHT22;8461;52.356;10.704;2022-11-25T18:01:36;7.00;99.90
13742;DHT22;8461;52.356;10.704;2022-11-25T18:04:23;7.00;99.90
13742;DHT22;8461;52.356;10.704;2022-11-25T18:06:49;7.00;99.90
13742;DHT22;8461;52.356;10.704;2022-11-25T18:09:15;7.00;99.90
13742;DHT22;8461;52.356;10.704;2022-11-25T18:11:42;6.90;99.90
13742;DHT22;8461;52.356;10.704;2022-11-25T18:14:15;6.90;99.90